CheckWX is a tool to help pilots better visualize weather data.  It is not intended as a substitute for an official pre-flight weather briefing.

03:36:59 UTC

FGSL TAF
Malabo Airport
Malabo, Equatorial Guinea
TAF FGSL 032300Z 0400/0506 24006KT 9999 BKN010 FEW016CB TEMPO 0402/0410 3500 TSRADZ BKN007 FEW015CB BECMG 0412/0414 SCT010 FEW018CB

Jul-4@
00:00 UTC

Jul-4 @ 00:00 UTC

Jul-4@
12:00 UTC

Jul-4 @ 12:00 UTC

TAF FGSL 032300Z 0400/0506 24006KT 9999 BKN010 FEW016CB

Expired

Wind
  • 240° at 6 KTS
Cloud Levels
  • Broken at 1,000' AGL
  • Few at 1,600' AGL

Jul-4@
02:00 UTC

Jul-4 @ 02:00 UTC

Jul-4@
10:00 UTC

Jul-4 @ 10:00 UTC

TEMPO 0402/0410 3500 TSRADZ BKN007 FEW015CB

Expired

Conditions
Thunderstorm, Rain, Thunderstorm, Drizzle
Cloud Levels
  • Broken at 700' AGL
  • Few at 1,500' AGL

Jul-4@
12:00 UTC

Jul-4 @ 12:00 UTC

Jul-5@
06:00 UTC

Jul-5 @ 06:00 UTC

BECMG 0412/0414 SCT010 FEW018CB

Becoming

Becoming Conditions expected by Sat, Jul 4, 2020 @ 14:00 UTC

Wind
  • 240° at 6 KTS
Cloud Levels
  • Scattered at 1,000' AGL
  • Few at 1,800' AGL